Ralph Wenz Field
KPNA : now visible

Airfield :











YOU CAN JOIN US ON...

 
LOGIN :

Register | Disclaimer

   EN    FR    IT 

 









Legend :    VFR   Marginal VFR   IFR   Intensive IFR   Very Intensive IFR
Visi :
Ceiling :
>= 8 km
>= 3000ft
5 to 8 km
1000 to 3000 ft
1500m to 5 km
500 to 1000 ft
800 to 1500m
200 to 500 ft
< 800m
< 200 ft
Symbols :   Thunderstorms  Fog  Heavy snow  Heavy precipitations  Wind > 20 kt






- Airport Elevation : 7102 ft


KPNA - Ralph Wenz Field

CURRENT METAR :
  • 291015Z AUTO 35005KT 7SM SCT028 BKN042 OVC075 M07/M08 A3005 RMK AO2

EXPIRED METARs :
  • 290955Z AUTO 32004KT 10SM SCT055 BKN065 OVC110 M08/M08 A3005 RMK AO2
  • 290935Z AUTO 32006KT 10SM SCT085 OVC120 M08/M08 A3005 RMK AO2
  • 290915Z AUTO 31006KT 10SM SCT060 SCT070 OVC085 M08/M08 A3005 RMK AO2
  • 290855Z AUTO 00000KT 7SM -SN SCT048 OVC060 M08/M08 A3005 RMK AO2
  • 290835Z AUTO 31004KT 5SM -SN SCT050 SCT055 OVC090 M08/M08 A3005 RMK AO2
  • 290815Z AUTO 30003KT 7SM -SN SCT042 BKN090 OVC120 M08/M09 A3005 RMK AO2
  • 290755Z AUTO 30004KT 10SM SCT017 SCT042 BKN120 M08/M09 A3005 RMK AO2
  • 290735Z AUTO 31004KT 10SM SCT021 SCT080 OVC110 M08/M09 A3005 RMK AO2

TAF KPNA
Valid from the 29 at 06:00 until the 30 at 06:00 UTC


290523Z 2906/3006 VRB04KT P6SM VCSH SCT004 OVC020
FM291300 30006KT P6SM OVC040
FM291900 30008KT P6SM FEW090
FM300300 30011KT P6SM BKN200



MET'MAP, your aeronautical weather chart ! - Copyright ORBIFLY December 2007 - Disclaimer

ORBIFLY MET'MAP TEAM :

Programming & Development : Alexandra Zaïnal
Concept & original design : Baudouin d'Aumeries
Assistance for programming : Marc-Olivier Méhu
Technical & hardware support : Manuel Goepfert

Contact : metmap@orbifly.com




SOURCES & CREDITS :

   NOAA       Earth
Advisory